Terminal Aerodrome Forecast
Issued by NWS

Home | Current Version | Previous Version | Text Only | Print | Product List | Glossary On
Versions: 1 2 3 4 5 6 7 8 9 10 11 12 13 14 15 16 17 18
000
FTUS45 KMSO 220500
TAFSMN
TAF
KSMN 220534Z 2206/2306 VRB05KT P6SM VCTS BKN100CB
     FM221800 17008KT P6SM -RA VCTS OVC070CB
      AMD LTD TO CLD VIS AND WIND=

USA.gov is the U.S. government's official web portal to all federal, state and local government web resources and services.